Time;durP1;ratioP1;P1;durP2;ratioP2;P2;SDS_P1;SDS_P2;PMS_P1;PMS_P2;Temp;Humidity;BMP_temperature;BMP_pressure;BME280_temperature;BME280_humidity;BME280_pressure;Samples;Min_cycle;Max_cycle;Signal;HPM_P1;HPM_P2
2024/01/16 00:01:01;;;;;;;10.50;5.80;;;;;;;1.43;78.46;98569.91;130153;1259;114704;-63
2024/01/16 00:04:18;;;;;;;6.20;4.00;;;;;;;1.42;78.37;98570.81;129480;1278;128462;-64
2024/01/16 00:07:20;;;;;;;9.30;5.50;;;;;;;1.42;78.86;98582.80;129851;1259;115326;-63
2024/01/16 00:10:22;;;;;;;7.10;4.00;;;;;;;1.39;78.77;98593.80;130017;1259;114802;-63
2024/01/16 00:13:25;;;;;;;3.40;1.80;;;;;;;1.28;78.52;98606.73;129956;1259;114686;-64
2024/01/16 00:16:26;;;;;;;8.10;2.70;;;;;;;1.14;78.77;98615.90;130176;1256;114824;-64
2024/01/16 00:19:29;;;;;;;4.00;1.80;;;;;;;1.04;78.92;98608.88;130135;1259;115385;-64
2024/01/16 00:22:30;;;;;;;4.40;1.40;;;;;;;0.94;78.74;98618.56;129581;1265;114903;-64
2024/01/16 00:25:32;;;;;;;2.90;1.20;;;;;;;0.88;79.24;98623.34;129692;1278;114757;-66
2024/01/16 00:28:35;;;;;;;5.60;2.40;;;;;;;0.84;79.48;98624.92;130050;1259;114751;-64
2024/01/16 00:31:37;;;;;;;3.20;1.20;;;;;;;0.79;79.28;98630.04;129816;1267;114841;-65
2024/01/16 00:34:41;;;;;;;6.00;2.30;;;;;;;0.73;79.66;98635.66;129984;1257;114736;-66
2024/01/16 00:37:43;;;;;;;4.00;1.50;;;;;;;0.69;79.36;98646.37;130029;1271;114753;-64
2024/01/16 00:40:46;;;;;;;5.40;2.20;;;;;;;0.65;79.28;98655.13;129869;1262;114815;-64
2024/01/16 00:43:49;;;;;;;4.10;1.50;;;;;;;0.59;79.56;98661.98;130256;1259;114751;-64
2024/01/16 00:46:51;;;;;;;3.80;1.70;;;;;;;0.55;79.76;98671.27;129769;1269;127989;-64
2024/01/16 00:49:53;;;;;;;4.50;3.00;;;;;;;0.52;79.67;98678.39;129730;1259;114745;-64
2024/01/16 00:52:55;;;;;;;3.80;2.30;;;;;;;0.51;80.08;98683.88;129979;1264;114828;-64
2024/01/16 00:55:57;;;;;;;5.60;2.90;;;;;;;0.48;79.92;98693.32;129597;1260;115149;-64
2024/01/16 00:58:59;;;;;;;4.00;2.70;;;;;;;0.45;80.03;98703.56;129994;1257;114827;-64
2024/01/16 01:02:01;;;;;;;4.30;2.00;;;;;;;0.43;80.28;98707.16;129630;1261;114837;-63
2024/01/16 01:05:03;;;;;;;3.80;2.40;;;;;;;0.40;80.36;98707.42;129609;1257;114716;-63
2024/01/16 01:08:06;;;;;;;6.10;1.80;;;;;;;0.40;80.32;98718.16;130113;1257;114821;-64
2024/01/16 01:11:07;;;;;;;3.90;1.90;;;;;;;0.40;80.53;98727.11;130100;1259;114913;-64
2024/01/16 01:14:09;;;;;;;6.10;2.30;;;;;;;0.39;80.89;98728.20;130002;1257;114713;-66
2024/01/16 01:17:11;;;;;;;8.10;2.30;;;;;;;0.38;80.90;98722.64;129986;1259;115409;-64
2024/01/16 01:20:13;;;;;;;4.10;1.60;;;;;;;0.37;80.91;98731.60;130075;1259;114799;-64
2024/01/16 01:23:15;;;;;;;3.80;2.10;;;;;;;0.36;81.05;98741.99;130026;1259;114843;-64
2024/01/16 01:26:20;;;;;;;5.20;2.40;;;;;;;0.35;80.81;98751.88;129543;1278;114894;-64
2024/01/16 01:29:22;;;;;;;4.50;2.20;;;;;;;0.32;80.97;98750.20;129988;1259;129182;-64
2024/01/16 01:32:24;;;;;;;6.60;6.00;;;;;;;0.31;80.93;98752.86;130014;1259;114737;-64
2024/01/16 01:35:26;;;;;;;4.00;2.30;;;;;;;0.30;81.22;98758.85;130069;1261;114751;-63
2024/01/16 01:38:28;;;;;;;4.70;2.40;;;;;;;0.28;81.00;98758.05;129481;1263;114923;-65
2024/01/16 01:41:30;;;;;;;4.50;2.40;;;;;;;0.26;81.23;98757.57;130806;1252;115180;-69
2024/01/16 01:44:31;;;;;;;4.10;1.80;;;;;;;0.23;80.83;98763.65;130347;1278;114794;-68
2024/01/16 01:47:33;;;;;;;5.50;1.80;;;;;;;0.20;80.77;98769.90;130087;1278;114754;-71
2024/01/16 01:50:35;;;;;;;4.90;2.30;;;;;;;0.18;80.96;98780.67;130064;1278;114791;-64
2024/01/16 01:53:38;;;;;;;4.00;2.00;;;;;;;0.15;81.08;98787.44;130165;1261;114773;-64
2024/01/16 01:56:43;;;;;;;5.60;1.80;;;;;;;0.13;81.04;98786.95;130180;1259;114783;-65
2024/01/16 01:59:45;;;;;;;7.30;2.50;;;;;;;0.12;81.10;98788.77;130058;1268;114802;-64
2024/01/16 02:02:47;;;;;;;6.80;3.40;;;;;;;0.08;81.16;98793.78;130073;1275;114709;-65
2024/01/16 02:05:49;;;;;;;8.00;2.60;;;;;;;0.04;80.96;98787.77;129968;1254;115186;-65
2024/01/16 02:08:51;;;;;;;7.20;2.30;;;;;;;0.01;80.94;98785.61;129843;1273;114795;-65
2024/01/16 02:11:53;;;;;;;6.00;2.50;;;;;;;-0.06;80.67;98791.23;130023;1259;115103;-65
2024/01/16 02:14:55;;;;;;;4.30;2.50;;;;;;;-0.16;80.37;98806.46;130134;1255;115369;-65
2024/01/16 02:17:57;;;;;;;6.90;2.60;;;;;;;-0.26;80.40;98814.12;129877;1271;114721;-66
2024/01/16 02:21:05;;;;;;;6.20;2.50;;;;;;;-0.32;80.61;98825.89;129888;1269;114905;-64
2024/01/16 02:24:08;;;;;;;5.20;2.70;;;;;;;-0.36;80.97;98824.61;129875;1262;114765;-64
2024/01/16 02:27:10;;;;;;;5.10;2.40;;;;;;;-0.41;80.81;98828.58;130021;1270;114786;-67
2024/01/16 02:30:12;;;;;;;6.60;3.80;;;;;;;-0.45;80.74;98830.62;130087;1278;114782;-64
2024/01/16 02:33:14;;;;;;;6.50;2.60;;;;;;;-0.47;81.02;98832.63;130083;1268;114697;-64
2024/01/16 02:36:16;;;;;;;6.20;2.70;;;;;;;-0.50;81.04;98834.27;129958;1262;114772;-65
2024/01/16 02:39:17;;;;;;;7.80;2.80;;;;;;;-0.51;81.45;98834.65;130133;1260;114722;-66
2024/01/16 02:42:20;;;;;;;7.30;2.90;;;;;;;-0.49;81.39;98838.13;130063;1268;114776;-64
2024/01/16 02:45:25;;;;;;;5.50;3.00;;;;;;;-0.49;81.46;98846.00;130003;1269;115169;-64
2024/01/16 02:48:27;;;;;;;5.00;2.40;;;;;;;-0.49;81.47;98848.80;129728;1278;114753;-66
2024/01/16 02:51:28;;;;;;;8.50;2.90;;;;;;;-0.48;81.72;98852.80;129834;1269;114808;-69
2024/01/16 02:54:31;;;;;;;5.20;2.30;;;;;;;-0.45;81.72;98858.52;130041;1260;114785;-70
2024/01/16 02:57:33;;;;;;;6.40;2.90;;;;;;;-0.44;81.83;98859.38;129910;1278;114811;-65
2024/01/16 03:00:35;;;;;;;6.90;2.90;;;;;;;-0.42;82.06;98863.17;129931;1258;114769;-73
2024/01/16 03:03:37;;;;;;;6.70;2.80;;;;;;;-0.40;82.15;98868.02;129971;1271;114750;-68
2024/01/16 03:06:39;;;;;;;8.30;3.70;;;;;;;-0.39;82.08;98874.13;129830;1263;114957;-65
2024/01/16 03:09:41;;;;;;;7.70;2.90;;;;;;;-0.38;82.06;98876.39;130076;1257;114790;-68
2024/01/16 03:12:43;;;;;;;5.50;2.00;;;;;;;-0.38;82.26;98882.33;129942;1263;114718;-66
2024/01/16 03:15:45;;;;;;;5.00;1.80;;;;;;;-0.38;82.04;98878.33;129992;1260;128828;-65
2024/01/16 03:18:48;;;;;;;5.10;2.30;;;;;;;-0.38;82.23;98881.10;129997;1258;114721;-65
2024/01/16 03:21:50;;;;;;;6.60;2.30;;;;;;;-0.37;82.27;98880.23;129827;1260;115309;-64
2024/01/16 03:24:52;;;;;;;4.00;1.90;;;;;;;-0.38;82.21;98879.53;129714;1273;115189;-66
2024/01/16 03:27:54;;;;;;;5.30;2.10;;;;;;;-0.40;82.20;98880.46;129580;1263;114778;-64
2024/01/16 03:30:57;;;;;;;6.40;2.00;;;;;;;-0.43;82.23;98886.17;129911;1269;114733;-67
2024/01/16 03:33:59;;;;;;;7.40;2.40;;;;;;;-0.44;82.39;98888.48;129934;1260;114777;-67
2024/01/16 03:37:01;;;;;;;4.80;2.40;;;;;;;-0.47;82.55;98883.64;129882;1271;128795;-66
2024/01/16 03:40:03;;;;;;;6.70;2.60;;;;;;;-0.46;82.49;98880.98;129736;1278;114705;-64
2024/01/16 03:43:06;;;;;;;6.60;2.90;;;;;;;-0.45;82.56;98894.13;129854;1258;114747;-64
2024/01/16 03:46:10;;;;;;;8.60;3.10;;;;;;;-0.47;82.73;98893.80;129789;1260;114828;-65
2024/01/16 03:49:12;;;;;;;4.90;2.30;;;;;;;-0.46;82.57;98889.06;129522;1264;114897;-65
2024/01/16 03:52:14;;;;;;;5.30;2.10;;;;;;;-0.47;82.71;98888.38;129792;1278;115240;-68
2024/01/16 03:55:16;;;;;;;5.50;2.10;;;;;;;-0.46;82.65;98891.70;129788;1278;114805;-64
2024/01/16 03:58:19;;;;;;;7.00;2.50;;;;;;;-0.47;82.65;98898.20;129738;1278;129115;-64
2024/01/16 04:01:31;;;;;;;5.00;2.40;;;;;;;-0.50;82.47;98904.79;129789;1270;114776;-66
2024/01/16 04:04:36;;;;;;;5.60;2.00;;;;;;;-0.53;82.59;98910.98;129559;1254;114860;-67
2024/01/16 04:07:38;;;;;;;6.00;1.70;;;;;;;-0.56;82.36;98911.96;129548;1259;114708;-68
2024/01/16 04:10:41;;;;;;;3.50;1.60;;;;;;;-0.58;82.46;98915.16;129831;1274;114745;-63
2024/01/16 04:13:44;;;;;;;5.80;1.40;;;;;;;-0.59;82.47;98914.66;129837;1270;115094;-63
2024/01/16 04:16:45;;;;;;;3.80;1.90;;;;;;;-0.60;82.62;98915.21;130033;1259;114751;-64
2024/01/16 04:19:48;;;;;;;5.00;1.90;;;;;;;-0.59;82.52;98917.30;129806;1260;115148;-67
2024/01/16 04:22:49;;;;;;;2.90;1.40;;;;;;;-0.59;82.78;98914.51;129743;1260;115225;-70
2024/01/16 04:25:51;;;;;;;4.20;2.00;;;;;;;-0.58;82.74;98920.08;129996;1254;114831;-65
2024/01/16 04:28:53;;;;;;;3.60;2.00;;;;;;;-0.57;82.89;98925.48;129850;1261;114801;-67
2024/01/16 04:31:55;;;;;;;3.40;1.80;;;;;;;-0.58;82.84;98928.33;129844;1260;114709;-64
2024/01/16 04:34:57;;;;;;;3.10;1.60;;;;;;;-0.56;82.90;98934.91;129926;1260;114746;-65
2024/01/16 04:37:59;;;;;;;4.90;1.90;;;;;;;-0.55;83.03;98940.14;129474;1254;128431;-64
2024/01/16 04:41:04;;;;;;;4.80;2.00;;;;;;;-0.54;83.06;98939.77;129806;1254;114945;-67
2024/01/16 04:44:06;;;;;;;4.70;2.10;;;;;;;-0.53;83.32;98938.52;129466;1262;114831;-63
2024/01/16 04:47:08;;;;;;;5.60;2.00;;;;;;;-0.51;83.30;98937.59;129856;1263;114703;-66
2024/01/16 04:50:10;;;;;;;4.40;2.70;;;;;;;-0.50;83.20;98924.58;129935;1260;114713;-63
2024/01/16 04:53:12;;;;;;;3.60;1.70;;;;;;;-0.48;83.41;98924.20;129795;1267;114776;-69
2024/01/16 04:56:14;;;;;;;3.40;2.20;;;;;;;-0.48;83.23;98938.02;129784;1261;114778;-63
2024/01/16 04:59:16;;;;;;;4.60;2.00;;;;;;;-0.49;83.06;98951.55;129879;1267;114789;-64
2024/01/16 05:02:18;;;;;;;5.90;2.10;;;;;;;-0.49;83.33;98959.45;129648;1254;114821;-64
2024/01/16 05:05:20;;;;;;;3.40;1.20;;;;;;;-0.50;83.32;98966.49;129755;1260;115102;-72
2024/01/16 05:08:25;;;;;;;2.70;1.20;;;;;;;-0.51;83.52;98970.56;129804;1261;114678;-64
2024/01/16 05:11:27;;;;;;;4.00;1.50;;;;;;;-0.52;83.21;98970.42;129855;1263;114715;-73
2024/01/16 05:14:30;;;;;;;4.60;1.70;;;;;;;-0.54;83.42;98979.95;129758;1260;114701;-67
2024/01/16 05:17:32;;;;;;;5.20;2.00;;;;;;;-0.55;83.43;98978.55;129917;1260;114802;-70
2024/01/16 05:20:34;;;;;;;5.70;2.00;;;;;;;-0.56;83.45;98968.92;129808;1260;128635;-70
2024/01/16 05:23:37;;;;;;;3.90;1.70;;;;;;;-0.57;83.44;98975.27;129783;1274;114744;-68
2024/01/16 05:26:39;;;;;;;5.20;1.30;;;;;;;-0.55;83.52;98969.80;129854;1270;115087;-65
2024/01/16 05:29:41;;;;;;;3.90;1.90;;;;;;;-0.54;83.61;98970.13;129964;1261;115244;-73
2024/01/16 05:32:43;;;;;;;2.80;1.20;;;;;;;-0.53;83.42;98967.30;129914;1256;115254;-73
2024/01/16 05:35:45;;;;;;;3.80;1.50;;;;;;;-0.52;83.62;98977.27;129865;1260;114793;-69
2024/01/16 05:38:50;;;;;;;2.70;1.50;;;;;;;-0.50;83.78;98981.42;129994;1260;114666;-68
2024/01/16 05:41:52;;;;;;;3.60;1.80;;;;;;;-0.48;83.78;98980.83;129821;1270;128820;-64
2024/01/16 05:44:54;;;;;;;4.00;1.60;;;;;;;-0.48;83.76;98983.09;129884;1278;114724;-64
2024/01/16 05:47:57;;;;;;;4.10;1.90;;;;;;;-0.46;83.85;98982.20;129815;1259;114785;-74
2024/01/16 05:50:59;;;;;;;5.20;2.70;;;;;;;-0.46;83.90;98987.80;129953;1260;114905;-64
2024/01/16 05:54:01;;;;;;;6.50;4.80;;;;;;;-0.44;84.02;98995.81;129827;1258;114793;-64
2024/01/16 05:57:03;;;;;;;3.30;1.90;;;;;;;-0.43;83.97;99001.41;129829;1259;114835;-73
2024/01/16 06:00:06;;;;;;;5.60;2.70;;;;;;;-0.43;83.93;99006.67;129924;1278;114839;-64
2024/01/16 06:03:08;;;;;;;7.20;3.10;;;;;;;-0.44;83.99;99017.76;129914;1260;128871;-65
2024/01/16 06:06:11;;;;;;;5.30;3.50;;;;;;;-0.45;83.93;99013.19;129941;1278;115208;-64
2024/01/16 06:09:16;;;;;;;11.50;6.30;;;;;;;-0.50;83.81;99017.37;129888;1256;114717;-71
2024/01/16 06:12:18;;;;;;;8.60;4.70;;;;;;;-0.60;83.54;99024.27;129877;1278;114846;-64
2024/01/16 06:15:20;;;;;;;5.40;2.90;;;;;;;-0.72;83.50;99031.23;129848;1257;114782;-68
2024/01/16 06:18:23;;;;;;;4.40;1.80;;;;;;;-0.80;83.63;99043.69;130022;1260;114738;-65
2024/01/16 06:21:26;;;;;;;3.90;1.90;;;;;;;-0.88;83.61;99047.38;129830;1277;128548;-63
2024/01/16 06:24:29;;;;;;;4.60;2.80;;;;;;;-1.01;83.69;99042.76;129928;1258;115250;-65
2024/01/16 06:27:32;;;;;;;5.20;2.40;;;;;;;-1.08;83.50;99037.65;129898;1259;114702;-63
2024/01/16 06:30:34;;;;;;;7.90;2.20;;;;;;;-1.13;83.47;99048.46;129939;1256;114715;-63
2024/01/16 06:33:36;;;;;;;3.50;2.00;;;;;;;-1.17;83.65;99047.50;129786;1260;114779;-63
2024/01/16 06:36:38;;;;;;;6.50;3.90;;;;;;;-1.19;83.53;99045.45;129912;1277;114815;-64
2024/01/16 06:39:40;;;;;;;8.50;3.80;;;;;;;-1.23;83.50;99051.30;129855;1277;128776;-63
2024/01/16 06:42:42;;;;;;;9.20;3.20;;;;;;;-1.33;83.26;99061.51;129842;1254;114717;-68
2024/01/16 06:45:45;;;;;;;9.10;3.50;;;;;;;-1.44;83.26;99062.80;129948;1259;115049;-66
2024/01/16 06:48:48;;;;;;;10.20;3.60;;;;;;;-1.48;83.42;99068.30;129797;1254;114815;-65
2024/01/16 06:51:50;;;;;;;9.70;3.30;;;;;;;-1.55;82.98;99079.11;129942;1260;114687;-62
2024/01/16 06:54:53;;;;;;;10.10;4.00;;;;;;;-1.59;83.08;99083.39;129926;1259;114724;-65
2024/01/16 06:57:55;;;;;;;8.90;4.80;;;;;;;-1.62;83.01;99092.38;129878;1260;114786;-63
2024/01/16 07:00:58;;;;;;;13.10;5.30;;;;;;;-1.64;83.28;99102.77;129878;1276;114799;-66
2024/01/16 07:04:00;;;;;;;11.40;5.00;;;;;;;-1.67;83.01;99107.20;129839;1264;114731;-63
2024/01/16 07:07:02;;;;;;;9.80;4.90;;;;;;;-1.70;82.81;99118.26;129893;1259;114785;-63
2024/01/16 07:10:13;;;;;;;10.00;4.80;;;;;;;-1.69;83.31;99124.55;129929;1254;114689;-63
2024/01/16 07:13:15;;;;;;;13.90;4.70;;;;;;;-1.67;83.70;99129.94;129536;1254;114904;-63
2024/01/16 07:16:18;;;;;;;9.50;5.20;;;;;;;-1.64;83.83;99139.16;129781;1259;114705;-64
2024/01/16 07:19:20;;;;;;;12.80;5.40;;;;;;;-1.62;84.01;99146.83;130000;1277;115440;-64
2024/01/16 07:22:22;;;;;;;8.90;4.00;;;;;;;-1.60;83.62;99153.80;129847;1277;114712;-64
2024/01/16 07:25:24;;;;;;;9.10;3.80;;;;;;;-1.57;84.27;99160.02;129740;1254;115612;-63
2024/01/16 07:28:26;;;;;;;6.10;3.70;;;;;;;-1.54;84.44;99168.20;129895;1270;114913;-63
2024/01/16 07:31:29;;;;;;;8.10;3.60;;;;;;;-1.51;84.01;99175.86;129906;1270;115132;-62
2024/01/16 07:34:33;;;;;;;9.50;4.50;;;;;;;-1.46;84.34;99182.60;129857;1257;115446;-63
2024/01/16 07:37:35;;;;;;;7.80;4.10;;;;;;;-1.44;83.88;99189.38;129826;1278;129899;-64
2024/01/16 07:40:37;;;;;;;7.30;3.70;;;;;;;-1.41;84.24;99196.52;129840;1268;114722;-64
2024/01/16 07:43:39;;;;;;;8.60;4.00;;;;;;;-1.38;83.95;99201.02;130038;1259;115083;-64
2024/01/16 07:46:42;;;;;;;8.50;4.70;;;;;;;-1.37;83.68;99208.86;129917;1259;114820;-69
2024/01/16 07:49:44;;;;;;;11.50;5.10;;;;;;;-1.34;83.88;99209.54;130084;1278;114798;-68
2024/01/16 07:52:46;;;;;;;13.20;5.70;;;;;;;-1.31;83.75;99214.39;129791;1257;114698;-64
2024/01/16 07:55:49;;;;;;;18.30;8.00;;;;;;;-1.27;83.67;99223.23;129846;1256;114794;-69
2024/01/16 07:58:51;;;;;;;17.60;8.70;;;;;;;-1.21;83.86;99229.27;129500;1278;128910;-64
2024/01/16 08:01:53;;;;;;;21.30;9.60;;;;;;;-1.11;83.97;99230.29;129880;1261;114824;-64
2024/01/16 08:04:55;;;;;;;21.10;11.60;;;;;;;-0.99;84.19;99220.60;129906;1260;114652;-64
2024/01/16 08:07:57;;;;;;;24.40;13.70;;;;;;;-0.94;84.08;99224.52;129649;1259;114823;-67
2024/01/16 08:10:59;;;;;;;26.00;12.90;;;;;;;-0.87;83.88;99224.03;129922;1255;114789;-67
2024/01/16 08:14:01;;;;;;;18.10;8.90;;;;;;;-0.80;84.00;99242.82;129955;1277;114689;-66
2024/01/16 08:17:04;;;;;;;15.60;7.30;;;;;;;-0.67;84.19;99249.21;129763;1260;114783;-65
2024/01/16 08:20:09;;;;;;;15.70;8.00;;;;;;;-0.54;84.09;99251.23;129948;1259;114699;-64
2024/01/16 08:23:12;;;;;;;11.50;5.80;;;;;;;-0.45;83.87;99254.54;129883;1277;114728;-64
2024/01/16 08:26:14;;;;;;;13.40;5.30;;;;;;;-0.36;84.17;99263.27;129928;1257;114984;-64
2024/01/16 08:29:16;;;;;;;16.90;8.40;;;;;;;-0.25;83.90;99265.17;130039;1259;114783;-64
2024/01/16 08:32:18;;;;;;;14.40;7.30;;;;;;;-0.16;84.06;99272.69;129887;1259;114783;-64
2024/01/16 08:35:20;;;;;;;11.40;6.70;;;;;;;-0.08;83.84;99275.50;129837;1260;114718;-64
2024/01/16 08:38:22;;;;;;;11.30;4.50;;;;;;;0.01;84.05;99282.33;129945;1271;114717;-64
2024/01/16 08:41:24;;;;;;;6.70;3.70;;;;;;;0.09;83.91;99283.53;129589;1278;128730;-63
2024/01/16 08:44:26;;;;;;;9.90;4.90;;;;;;;0.16;83.93;99282.32;129740;1257;115227;-63
2024/01/16 08:47:28;;;;;;;9.70;5.20;;;;;;;0.23;83.53;99286.73;129933;1261;115025;-63
2024/01/16 08:50:30;;;;;;;8.90;5.40;;;;;;;0.33;83.65;99295.44;129479;1264;114802;-62
2024/01/16 08:53:34;;;;;;;6.10;3.80;;;;;;;0.39;83.65;99297.77;129817;1278;114781;-63
2024/01/16 08:56:36;;;;;;;7.80;4.70;;;;;;;0.43;83.51;99305.89;129947;1259;114732;-62
2024/01/16 08:59:39;;;;;;;9.40;5.00;;;;;;;0.50;83.13;99307.50;129854;1259;114735;-64
2024/01/16 09:02:41;;;;;;;7.50;4.40;;;;;;;0.59;83.61;99304.48;130008;1259;114700;-62
2024/01/16 09:05:43;;;;;;;9.10;4.80;;;;;;;0.72;83.57;99301.16;129581;1260;114915;-64
2024/01/16 09:08:46;;;;;;;9.30;4.80;;;;;;;0.85;83.14;99300.48;129941;1259;114798;-63
2024/01/16 09:11:48;;;;;;;9.10;5.00;;;;;;;0.97;82.95;99311.08;129889;1278;114798;-69
2024/01/16 09:14:50;;;;;;;6.80;4.60;;;;;;;1.11;83.15;99314.56;129878;1259;115222;-62
2024/01/16 09:17:52;;;;;;;8.40;4.60;;;;;;;1.23;83.24;99311.95;129800;1258;114747;-62
2024/01/16 09:20:55;;;;;;;7.90;4.50;;;;;;;1.35;82.86;99309.70;129848;1270;114709;-61
2024/01/16 09:23:57;;;;;;;8.90;4.50;;;;;;;1.42;82.14;99307.40;129791;1278;129087;-64
2024/01/16 09:26:59;;;;;;;27.50;12.80;;;;;;;1.37;81.65;99299.27;129760;1257;114718;-67
2024/01/16 09:30:01;;;;;;;15.30;9.30;;;;;;;1.32;81.52;99300.46;129861;1259;115125;-62
2024/01/16 09:33:06;;;;;;;19.90;14.20;;;;;;;1.32;81.48;99306.09;129598;1263;114869;-63
2024/01/16 09:36:09;;;;;;;35.80;17.10;;;;;;;1.34;81.44;99309.19;129550;1264;115174;-63
2024/01/16 09:39:11;;;;;;;37.10;20.10;;;;;;;1.46;81.74;99313.79;129857;1259;114726;-62
2024/01/16 09:42:13;;;;;;;16.00;8.00;;;;;;;1.60;81.81;99318.48;129930;1278;114798;-63
2024/01/16 09:45:19;;;;;;;14.90;7.30;;;;;;;1.75;81.92;99318.59;129903;1256;114752;-68
2024/01/16 09:48:21;;;;;;;12.20;6.70;;;;;;;1.84;80.97;99318.14;129558;1257;114869;-63
2024/01/16 09:51:23;;;;;;;8.00;4.90;;;;;;;1.81;80.63;99327.03;129766;1259;114719;-62
2024/01/16 09:54:26;;;;;;;6.80;4.10;;;;;;;1.87;80.84;99328.97;129859;1259;114850;-62
2024/01/16 09:57:30;;;;;;;6.60;3.80;;;;;;;1.98;80.81;99327.08;129643;1257;114758;-64
2024/01/16 10:00:32;;;;;;;9.40;3.60;;;;;;;2.02;80.32;99334.16;129692;1260;114802;-62
2024/01/16 10:03:35;;;;;;;7.70;3.90;;;;;;;2.07;80.28;99339.65;129783;1277;114785;-63
2024/01/16 10:06:38;;;;;;;7.00;3.70;;;;;;;2.10;80.11;99343.77;130009;1259;114750;-65
2024/01/16 10:09:40;;;;;;;5.60;3.50;;;;;;;2.15;80.12;99350.48;129980;1259;115161;-63
2024/01/16 10:12:43;;;;;;;7.90;3.80;;;;;;;2.23;80.17;99352.37;129962;1256;114816;-64
2024/01/16 10:15:49;;;;;;;3.90;2.40;;;;;;;2.32;80.08;99357.57;129883;1259;115141;-63
2024/01/16 10:19:03;;;;;;;6.80;2.70;;;;;;;2.36;79.57;99357.09;129641;1277;114978;-65
2024/01/16 10:22:06;;;;;;;5.00;2.20;;;;;;;2.33;79.54;99358.08;129873;1277;127962;-63
2024/01/16 10:25:11;;;;;;;7.90;4.50;;;;;;;2.31;79.36;99359.73;129834;1260;114787;-65
2024/01/16 10:28:20;;;;;;;9.20;5.30;;;;;;;2.34;79.34;99359.27;130015;1254;114682;-63
2024/01/16 10:31:30;;;;;;;17.40;9.60;;;;;;;2.35;79.03;99361.18;129963;1277;114846;-63
2024/01/16 10:34:32;;;;;;;11.30;6.20;;;;;;;2.35;79.08;99363.45;129793;1259;114696;-63
2024/01/16 10:37:50;;;;;;;19.20;8.50;;;;;;;2.31;78.87;99366.23;129641;1260;114812;-68
2024/01/16 10:41:06;;;;;;;12.10;6.80;;;;;;;2.28;78.88;99372.84;129778;1278;114769;-64
2024/01/16 10:44:08;;;;;;;7.30;3.70;;;;;;;2.27;79.01;99373.91;129574;1261;114705;-63
2024/01/16 10:47:15;;;;;;;16.70;8.50;;;;;;;2.32;79.14;99376.95;129603;1279;114881;-63
2024/01/16 10:50:17;;;;;;;13.30;5.10;;;;;;;2.36;78.86;99377.36;129773;1272;114724;-63
2024/01/16 10:53:21;;;;;;;8.50;4.70;;;;;;;2.42;78.82;99381.73;129738;1256;115492;-63
2024/01/16 10:56:23;;;;;;;9.10;3.20;;;;;;;2.50;78.86;99385.73;129837;1258;114875;-63
2024/01/16 10:59:34;;;;;;;14.70;6.70;;;;;;;2.56;79.05;99386.07;129792;1259;114837;-65
2024/01/16 11:02:44;;;;;;;6.70;3.50;;;;;;;2.58;78.48;99383.90;129839;1256;114706;-63
2024/01/16 11:05:47;;;;;;;5.90;3.30;;;;;;;2.54;78.11;99380.14;130099;1257;114774;-63
2024/01/16 11:08:49;;;;;;;13.30;6.70;;;;;;;2.52;78.23;99382.50;129742;1260;114744;-65
2024/01/16 11:11:53;;;;;;;18.10;7.30;;;;;;;2.52;77.96;99386.55;129796;1271;310666;-63
2024/01/16 11:15:01;;;;;;;19.00;8.00;;;;;;;2.47;77.78;99386.55;130074;1256;114895;-64
2024/01/16 11:18:04;;;;;;;76.30;22.00;;;;;;;2.48;77.78;99390.02;130072;1259;114757;-63
2024/01/16 11:21:11;;;;;;;26.80;9.80;;;;;;;2.53;77.79;99390.05;129942;1259;114686;-63
2024/01/16 11:24:13;;;;;;;10.90;5.70;;;;;;;2.66;77.75;99386.13;129553;1279;128435;-64
2024/01/16 11:27:24;;;;;;;11.70;5.70;;;;;;;2.77;77.59;99383.30;129808;1256;114764;-63
2024/01/16 11:30:33;;;;;;;23.60;8.10;;;;;;;2.81;77.40;99388.10;129619;1261;114864;-63
2024/01/16 11:33:35;;;;;;;18.60;7.30;;;;;;;2.89;77.55;99395.44;129577;1258;114821;-67
2024/01/16 11:37:04;;;;;;;8.00;2.70;;;;;;;2.90;77.31;99394.14;129585;1260;114751;-64
2024/01/16 11:40:21;;;;;;;6.40;2.90;;;;;;;2.91;77.10;99393.60;128841;1264;128616;-63
2024/01/16 11:43:39;;;;;;;5.90;3.20;;;;;;;2.88;76.87;99394.05;129188;1262;114835;-67
2024/01/16 11:47:01;;;;;;;21.30;8.40;;;;;;;2.82;76.93;99396.34;129286;1266;114899;-64
2024/01/16 11:50:10;;;;;;;13.00;5.00;;;;;;;2.70;76.27;99402.02;129185;1262;114825;-63
2024/01/16 11:53:36;;;;;;;45.00;13.60;;;;;;;2.59;76.56;99403.62;129231;1262;114963;-64
2024/01/16 11:56:48;;;;;;;23.30;6.60;;;;;;;2.45;76.62;99411.08;129072;1262;127892;-64
2024/01/16 12:00:12;;;;;;;78.80;20.00;;;;;;;2.33;76.73;99411.11;129305;1284;114855;-65
2024/01/16 12:03:18;;;;;;;51.00;15.70;;;;;;;2.18;76.93;99416.29;129202;1268;114798;-64
2024/01/16 12:06:21;;;;;;;27.30;12.80;;;;;;;2.03;76.81;99419.19;129166;1265;114920;-64
2024/01/16 12:09:26;;;;;;;28.40;14.00;;;;;;;1.90;77.22;99422.02;129225;1265;114881;-63
2024/01/16 12:12:28;;;;;;;6.00;4.00;;;;;;;1.83;77.54;99421.88;129215;1284;129050;-64
2024/01/16 12:15:30;;;;;;;18.40;7.60;;;;;;;1.75;77.73;99420.15;129114;1263;114917;-64
2024/01/16 12:18:32;;;;;;;20.70;10.30;;;;;;;1.67;77.93;99422.13;130026;1259;114768;-66
2024/01/16 12:21:45;;;;;;;12.50;6.90;;;;;;;1.59;78.04;99425.86;129552;1278;114773;-64
2024/01/16 12:24:47;;;;;;;16.10;7.60;;;;;;;1.51;78.17;99433.83;129628;1278;114880;-64
2024/01/16 12:27:59;;;;;;;8.70;5.50;;;;;;;1.42;78.09;99435.10;129747;1278;114761;-63
2024/01/16 12:31:02;;;;;;;15.30;5.90;;;;;;;1.35;78.11;99435.83;129550;1278;128505;-64
2024/01/16 12:34:07;;;;;;;8.40;4.10;;;;;;;1.33;78.49;99431.46;129815;1256;115226;-63
2024/01/16 12:37:09;;;;;;;14.50;5.30;;;;;;;1.36;78.35;99434.56;129834;1259;114891;-63
2024/01/16 12:40:14;;;;;;;30.80;11.50;;;;;;;1.35;78.49;99441.09;129933;1273;114714;-64
2024/01/16 12:43:18;;;;;;;14.50;7.20;;;;;;;1.35;78.38;99444.79;129862;1257;114780;-64
2024/01/16 12:46:20;;;;;;;7.50;4.20;;;;;;;1.37;78.65;99447.39;129746;1258;127983;-64
2024/01/16 12:49:23;;;;;;;13.80;6.20;;;;;;;1.39;78.67;99447.00;129780;1259;115301;-64
2024/01/16 12:52:26;;;;;;;11.60;5.80;;;;;;;1.41;78.75;99449.58;129945;1259;114856;-65
2024/01/16 12:55:29;;;;;;;20.00;8.90;;;;;;;1.43;78.50;99457.63;130059;1277;116413;-64
2024/01/16 12:58:35;;;;;;;16.70;8.00;;;;;;;1.46;78.68;99457.90;129967;1259;114846;-64
2024/01/16 13:01:41;;;;;;;12.40;6.10;;;;;;;1.48;78.73;99462.77;129854;1256;114665;-64
2024/01/16 13:04:43;;;;;;;11.40;7.40;;;;;;;1.49;78.72;99465.39;129878;1259;128894;-63
2024/01/16 13:07:46;;;;;;;10.60;6.30;;;;;;;1.49;78.68;99459.73;129641;1260;115183;-63
2024/01/16 13:11:07;;;;;;;10.40;6.50;;;;;;;1.52;78.87;99458.61;129990;1258;114684;-63
2024/01/16 13:14:09;;;;;;;11.60;7.30;;;;;;;1.54;78.52;99462.79;129962;1259;115411;-65
2024/01/16 13:17:12;;;;;;;10.70;6.00;;;;;;;1.51;78.27;99460.57;129798;1259;114706;-66
2024/01/16 13:20:16;;;;;;;9.40;6.30;;;;;;;1.43;78.27;99460.59;129883;1259;114805;-63
2024/01/16 13:23:18;;;;;;;12.00;6.40;;;;;;;1.34;78.15;99455.36;130013;1277;114732;-64
2024/01/16 13:26:20;;;;;;;10.50;6.30;;;;;;;1.24;77.89;99459.14;130062;1256;114851;-65
2024/01/16 13:29:22;;;;;;;10.50;5.70;;;;;;;1.14;78.17;99461.50;129994;1258;115148;-67
2024/01/16 13:32:26;;;;;;;9.50;6.50;;;;;;;1.02;77.70;99461.09;129859;1259;114720;-65
2024/01/16 13:35:28;;;;;;;13.30;8.10;;;;;;;0.91;77.80;99467.86;129966;1259;115231;-64
2024/01/16 13:38:30;;;;;;;13.30;8.10;;;;;;;0.81;77.65;99463.71;129846;1259;114824;-65
2024/01/16 13:41:32;;;;;;;11.90;8.00;;;;;;;0.72;77.61;99464.07;129984;1275;114772;-65
2024/01/16 13:44:34;;;;;;;15.60;9.40;;;;;;;0.64;77.66;99463.03;130014;1257;114750;-65
2024/01/16 13:47:40;;;;;;;14.10;8.90;;;;;;;0.57;77.92;99466.70;129973;1259;114712;-65
2024/01/16 13:50:44;;;;;;;14.90;8.40;;;;;;;0.52;78.15;99470.48;129653;1261;114981;-64
2024/01/16 13:53:46;;;;;;;14.70;9.00;;;;;;;0.49;78.51;99478.30;129898;1256;114737;-65
2024/01/16 13:56:49;;;;;;;19.80;9.30;;;;;;;0.46;78.16;99480.98;129833;1259;114700;-66
2024/01/16 13:59:51;;;;;;;11.40;6.70;;;;;;;0.41;78.30;99480.73;129472;1256;128371;-67
2024/01/16 14:02:54;;;;;;;10.30;5.70;;;;;;;0.39;78.62;99478.68;129586;1260;114781;-66
2024/01/16 14:05:57;;;;;;;11.00;6.70;;;;;;;0.37;78.71;99480.46;129853;1271;114772;-67